Time;durP1;ratioP1;P1;durP2;ratioP2;P2;SDS_P1;SDS_P2;PMS_P1;PMS_P2;Temp;Humidity;BMP_temperature;BMP_pressure;BME280_temperature;BME280_humidity;BME280_pressure;Samples;Min_cycle;Max_cycle;Signal;HPM_P1;HPM_P2
2021/01/10 00:00:20;;;;;;;14.95;9.80;;;;;;;3.20;74.16;101829.66;686080;28;45564;-63
2021/01/10 00:00:42;;;;;;;14.90;9.82;;;;;;;3.19;74.13;101820.78;684992;28;44356;-63
2021/01/10 00:01:03;;;;;;;15.90;9.90;;;;;;;3.20;74.18;101825.16;685986;28;22171;-65
2021/01/10 00:01:25;;;;;;;18.25;10.45;;;;;;;3.19;74.14;101825.25;685154;28;46457;-65
2021/01/10 00:01:46;;;;;;;17.20;10.23;;;;;;;3.19;74.18;101828.78;684136;28;21665;-63
2021/01/10 00:02:08;;;;;;;17.55;10.18;;;;;;;3.15;74.15;101819.28;683505;28;36495;-64
2021/01/10 00:02:30;;;;;;;17.85;10.20;;;;;;;3.18;74.23;101821.75;684428;28;21856;-62
2021/01/10 00:02:51;;;;;;;17.58;10.57;;;;;;;3.18;74.17;101827.09;682852;28;45227;-62
2021/01/10 00:03:13;;;;;;;16.80;10.77;;;;;;;3.18;74.09;101823.53;683354;28;47202;-61
2021/01/10 00:03:34;;;;;;;17.20;10.55;;;;;;;3.16;74.10;101820.13;684444;28;23478;-61
2021/01/10 00:03:57;;;;;;;17.50;10.27;;;;;;;3.17;74.22;101821.84;685826;28;33063;-61
2021/01/10 00:04:18;;;;;;;16.65;10.48;;;;;;;3.18;74.20;101823.53;685113;28;46295;-62
2021/01/10 00:04:40;;;;;;;18.17;10.75;;;;;;;3.19;74.21;101825.25;684924;28;46345;-61
2021/01/10 00:05:01;;;;;;;16.75;10.52;;;;;;;3.18;74.07;101819.06;684631;28;23472;-61
2021/01/10 00:05:30;;;;;;;16.80;10.50;;;;;;;3.18;74.21;101823.53;684357;28;60683;-63
2021/01/10 00:05:52;;;;;;;18.40;10.60;;;;;;;3.18;74.17;101821.75;683522;28;90503;-63
2021/01/10 00:06:13;;;;;;;17.88;10.38;;;;;;;3.18;74.22;101824.41;684966;28;46319;-63
2021/01/10 00:06:34;;;;;;;15.73;10.57;;;;;;;3.18;74.17;101823.53;685549;28;21537;-63
2021/01/10 00:06:55;;;;;;;16.80;10.60;;;;;;;3.18;74.18;101827.09;685382;28;23426;-63
2021/01/10 00:07:22;;;;;;;16.10;9.75;;;;;;;3.19;74.25;101828.78;685679;28;22729;-63
2021/01/10 00:07:44;;;;;;;18.35;10.65;;;;;;;3.19;74.25;101825.25;682885;28;137724;-63
2021/01/10 00:08:06;;;;;;;16.38;10.70;;;;;;;3.18;74.13;101824.41;684202;28;69440;-62
2021/01/10 00:08:27;;;;;;;18.38;11.10;;;;;;;3.18;74.03;101826.22;685887;28;22376;-63
2021/01/10 00:08:48;;;;;;;15.95;10.35;;;;;;;3.18;74.21;101818.19;685746;28;21545;-63
2021/01/10 00:09:09;;;;;;;17.10;10.20;;;;;;;3.19;74.03;101820.78;684631;28;46363;-63
2021/01/10 00:09:31;;;;;;;17.17;10.60;;;;;;;3.18;74.22;101827.09;685143;28;22375;-63
2021/01/10 00:09:53;;;;;;;15.25;9.90;;;;;;;3.19;74.23;101823.44;684938;28;44057;-63
2021/01/10 00:10:15;;;;;;;17.77;10.13;;;;;;;3.17;74.34;101825.38;686590;28;23343;-64
2021/01/10 00:10:37;;;;;;;16.98;10.13;;;;;;;3.15;74.12;101819.28;684095;28;67507;-63
2021/01/10 00:10:58;;;;;;;17.25;10.35;;;;;;;3.18;74.13;101823.53;684855;28;46442;-65
2021/01/10 00:11:20;;;;;;;15.73;9.80;;;;;;;3.18;74.18;101828.88;686689;28;981;-65
2021/01/10 00:11:42;;;;;;;16.45;9.95;;;;;;;3.18;73.95;101826.22;685614;28;18131;-64
2021/01/10 00:12:03;;;;;;;16.48;10.20;;;;;;;3.18;74.20;101824.41;685575;28;29677;-65
2021/01/10 00:12:26;;;;;;;17.73;10.65;;;;;;;3.18;74.14;101823.53;684916;28;45402;-65
2021/01/10 00:12:48;;;;;;;18.50;10.65;;;;;;;3.19;74.23;101819.94;685429;28;53493;-63
2021/01/10 00:13:10;;;;;;;16.83;10.60;;;;;;;3.19;74.30;101828.78;685618;28;20861;-63
2021/01/10 00:13:31;;;;;;;15.43;9.93;;;;;;;3.20;74.15;101825.16;684869;28;44525;-63
2021/01/10 00:13:52;;;;;;;15.55;10.23;;;;;;;3.19;74.20;101826.09;684432;28;47183;-63
2021/01/10 00:14:14;;;;;;;16.55;9.98;;;;;;;3.20;74.01;101827.84;685233;28;23453;-62
2021/01/10 00:14:35;;;;;;;18.60;11.13;;;;;;;3.16;74.17;101820.97;685303;28;23516;-62
2021/01/10 00:14:56;;;;;;;16.77;10.82;;;;;;;3.20;74.05;101825.16;685957;28;22410;-64
2021/01/10 00:15:19;;;;;;;15.35;10.23;;;;;;;3.20;74.07;101827.00;687612;28;1209;-63
2021/01/10 00:15:41;;;;;;;16.65;10.05;;;;;;;3.13;74.03;101815.84;684661;28;46372;-63
2021/01/10 00:16:02;;;;;;;18.63;10.48;;;;;;;3.20;74.08;101827.00;685630;28;20868;-63
2021/01/10 00:16:23;;;;;;;17.65;10.85;;;;;;;3.19;74.22;101827.94;684981;28;46326;-62
2021/01/10 00:16:45;;;;;;;16.35;10.60;;;;;;;3.20;74.17;101821.66;685718;28;22392;-63
2021/01/10 00:17:06;;;;;;;19.40;10.98;;;;;;;3.19;74.08;101828.78;685736;28;23514;-62
2021/01/10 00:17:28;;;;;;;17.63;10.52;;;;;;;3.16;74.03;101814.78;685757;28;22446;-62
2021/01/10 00:17:49;;;;;;;18.30;10.50;;;;;;;3.18;74.06;101824.41;686296;28;46363;-63
2021/01/10 00:18:10;;;;;;;17.92;10.40;;;;;;;3.19;74.31;101827.94;685556;28;23657;-63
2021/01/10 00:18:31;;;;;;;16.90;10.20;;;;;;;3.18;74.21;101829.75;684947;28;43768;-63
2021/01/10 00:18:53;;;;;;;16.63;10.50;;;;;;;3.18;74.20;101827.09;685222;28;23417;-63
2021/01/10 00:19:14;;;;;;;17.33;10.40;;;;;;;3.16;74.13;101818.31;684452;28;44393;-63
2021/01/10 00:19:35;;;;;;;16.70;10.48;;;;;;;3.19;74.16;101828.78;684713;28;22424;-63
2021/01/10 00:19:57;;;;;;;16.52;10.10;;;;;;;3.15;74.16;101824.63;685148;28;23444;-64
2021/01/10 00:20:18;;;;;;;17.27;10.48;;;;;;;3.13;74.26;101820.34;686743;28;22416;-63
2021/01/10 00:20:40;;;;;;;16.55;10.82;;;;;;;3.20;74.13;101829.66;685182;28;43728;-63
2021/01/10 00:21:02;;;;;;;16.85;10.25;;;;;;;3.20;74.24;101832.31;684481;28;44379;-63
2021/01/10 00:21:23;;;;;;;18.05;10.43;;;;;;;3.20;74.10;101833.16;685690;28;22368;-63
2021/01/10 00:21:44;;;;;;;16.77;10.65;;;;;;;3.19;74.15;101828.78;685245;28;47356;-62
2021/01/10 00:22:12;;;;;;;15.85;10.48;;;;;;;3.18;74.14;101827.09;685901;28;21519;-63
2021/01/10 00:22:38;;;;;;;17.67;11.03;;;;;;;3.18;74.21;101827.09;681048;28;145635;-63
2021/01/10 00:23:00;;;;;;;15.98;9.82;;;;;;;3.19;74.27;101830.59;681430;28;137905;-65
2021/01/10 00:23:21;;;;;;;15.73;9.75;;;;;;;3.19;74.14;101828.78;684959;28;45255;-64
2021/01/10 00:23:42;;;;;;;17.15;10.48;;;;;;;3.17;74.10;101822.69;684822;28;46459;-64
2021/01/10 00:24:04;;;;;;;17.50;11.13;;;;;;;3.19;74.05;101828.78;685582;28;23468;-64
2021/01/10 00:24:26;;;;;;;16.50;10.60;;;;;;;3.20;74.01;101827.00;684496;28;46386;-64
2021/01/10 00:24:47;;;;;;;20.70;10.20;;;;;;;3.20;74.04;101824.31;685864;28;23571;-64
2021/01/10 00:25:10;;;;;;;18.73;10.20;;;;;;;3.18;73.97;101827.09;685599;28;46427;-59
2021/01/10 00:25:32;;;;;;;19.08;10.50;;;;;;;3.19;74.20;101822.59;684409;28;69328;-61
2021/01/10 00:25:53;;;;;;;17.67;10.95;;;;;;;3.20;74.34;101829.66;685183;28;47375;-61
2021/01/10 00:26:15;;;;;;;18.77;10.57;;;;;;;3.19;74.13;101831.44;685627;28;21535;-62
2021/01/10 00:26:36;;;;;;;18.35;10.88;;;;;;;3.19;74.30;101828.78;684251;28;45240;-62
2021/01/10 00:26:58;;;;;;;19.23;11.10;;;;;;;3.19;74.30;101830.59;685746;28;21520;-62
2021/01/10 00:27:19;;;;;;;18.70;11.30;;;;;;;3.17;74.19;101828.03;684331;28;46982;-61
2021/01/10 00:27:41;;;;;;;20.17;11.45;;;;;;;3.20;74.13;101832.31;686823;28;22382;-62
2021/01/10 00:28:02;;;;;;;20.13;11.18;;;;;;;3.20;74.30;101833.16;685181;28;46329;-63
2021/01/10 00:28:24;;;;;;;20.90;11.05;;;;;;;3.19;74.15;101835.94;685589;28;23432;-62
2021/01/10 00:28:45;;;;;;;17.52;10.02;;;;;;;3.20;74.27;101832.31;685179;28;46393;-62
2021/01/10 00:29:08;;;;;;;17.58;10.82;;;;;;;3.20;74.27;101838.50;685804;28;22417;-63
2021/01/10 00:29:29;;;;;;;18.38;11.23;;;;;;;3.20;74.29;101830.50;684901;28;46839;-63
2021/01/10 00:29:50;;;;;;;17.23;11.15;;;;;;;3.20;74.04;101838.50;684455;28;46297;-63
2021/01/10 00:30:14;;;;;;;19.65;11.48;;;;;;;3.20;74.19;101829.66;686608;28;20559;-62
2021/01/10 00:30:40;;;;;;;17.52;10.02;;;;;;;3.19;74.12;101830.59;684439;28;61720;-62
2021/01/10 00:31:02;;;;;;;14.57;9.57;;;;;;;3.13;74.16;101823.84;686376;28;868;-62
2021/01/10 00:31:27;;;;;;;17.70;10.68;;;;;;;3.18;74.28;101832.44;685668;28;23546;-61
2021/01/10 00:31:49;;;;;;;18.50;11.43;;;;;;;3.19;74.19;101834.13;680787;28;84285;-62
2021/01/10 00:32:10;;;;;;;20.52;12.38;;;;;;;3.19;74.30;101838.63;682456;28;31740;-62
2021/01/10 00:32:36;;;;;;;20.15;11.60;;;;;;;3.19;74.39;101830.59;682902;28;13398;-63
2021/01/10 00:32:57;;;;;;;18.15;11.13;;;;;;;3.19;74.26;101839.47;679180;28;138474;-62
2021/01/10 00:33:19;;;;;;;19.33;10.85;;;;;;;3.19;74.23;101836.78;683074;28;23502;-62
2021/01/10 00:33:40;;;;;;;19.58;11.27;;;;;;;3.18;74.20;101828.88;683405;28;46344;-62
2021/01/10 00:34:02;;;;;;;17.67;11.13;;;;;;;3.19;74.19;101833.28;685647;28;22124;-62
2021/01/10 00:34:23;;;;;;;17.17;10.23;;;;;;;3.20;74.16;101837.66;685176;28;47476;-63
2021/01/10 00:34:44;;;;;;;17.33;10.63;;;;;;;3.19;74.19;101835.94;685970;28;21158;-62
2021/01/10 00:35:08;;;;;;;20.52;11.25;;;;;;;3.17;74.12;101830.72;686704;28;22576;-63
2021/01/10 00:35:30;;;;;;;19.88;11.20;;;;;;;3.19;74.15;101835.94;682908;28;113576;-64
2021/01/10 00:35:51;;;;;;;21.02;11.10;;;;;;;3.18;74.17;101836.88;685618;28;21558;-63
2021/01/10 00:36:13;;;;;;;18.98;10.90;;;;;;;3.18;74.32;101836.88;685424;28;21534;-64
2021/01/10 00:36:34;;;;;;;18.35;10.50;;;;;;;3.19;74.16;101842.13;685185;28;39378;-64
2021/01/10 00:36:56;;;;;;;19.88;11.10;;;;;;;3.19;74.26;101836.78;684919;28;46406;-64
2021/01/10 00:37:19;;;;;;;17.80;10.80;;;;;;;3.19;74.23;101834.13;685669;28;23505;-63
2021/01/10 00:37:45;;;;;;;17.17;10.43;;;;;;;3.20;74.00;101835.00;685458;28;69470;-64
2021/01/10 00:38:08;;;;;;;20.60;11.30;;;;;;;3.18;74.25;101826.22;681502;28;137839;-64
2021/01/10 00:38:29;;;;;;;17.75;11.18;;;;;;;3.18;74.13;101835.09;683933;28;70319;-63
2021/01/10 00:38:50;;;;;;;17.85;10.57;;;;;;;3.18;74.23;101835.09;685746;28;16138;-64
2021/01/10 00:39:12;;;;;;;19.05;10.90;;;;;;;3.20;74.26;101840.34;686062;28;17401;-63
2021/01/10 00:39:33;;;;;;;18.42;10.82;;;;;;;3.17;74.29;101835.19;684876;28;44480;-63
2021/01/10 00:39:54;;;;;;;16.17;10.00;;;;;;;3.15;74.35;101824.63;684902;28;43175;-64
2021/01/10 00:40:17;;;;;;;20.25;11.05;;;;;;;3.20;74.21;101845.69;685648;28;45254;-64
2021/01/10 00:40:38;;;;;;;18.95;11.43;;;;;;;3.19;74.21;101836.78;684561;28;46469;-65
2021/01/10 00:40:59;;;;;;;18.88;11.55;;;;;;;3.19;74.17;101841.28;685340;28;23414;-66
2021/01/10 00:41:21;;;;;;;19.52;12.07;;;;;;;3.19;74.29;101842.13;685656;28;22379;-65
2021/01/10 00:41:42;;;;;;;18.95;11.02;;;;;;;3.18;74.28;101845.78;685345;28;33693;-65
2021/01/10 00:42:05;;;;;;;16.08;10.23;;;;;;;3.19;74.25;101836.78;683757;28;22355;-63
2021/01/10 00:42:26;;;;;;;17.13;10.07;;;;;;;3.19;74.34;101841.28;681991;28;69233;-65
2021/01/10 00:42:49;;;;;;;16.67;10.57;;;;;;;3.12;74.18;101826.63;682345;28;45213;-64
2021/01/10 00:43:10;;;;;;;18.40;10.70;;;;;;;3.19;74.25;101842.13;683476;28;44395;-63
2021/01/10 00:43:31;;;;;;;18.75;10.82;;;;;;;3.20;74.24;101843.00;684200;28;22558;-65
2021/01/10 00:43:53;;;;;;;18.50;10.40;;;;;;;3.20;74.25;101843.00;684325;28;23452;-65
2021/01/10 00:44:14;;;;;;;17.17;10.43;;;;;;;3.20;74.11;101851.84;682968;28;46259;-65
2021/01/10 00:44:36;;;;;;;17.50;11.18;;;;;;;3.19;74.17;101842.13;680776;28;46427;-65
2021/01/10 00:44:57;;;;;;;19.27;10.85;;;;;;;3.17;74.26;101836.03;682466;28;24334;-65
2021/01/10 00:45:19;;;;;;;15.73;10.07;;;;;;;3.19;74.19;101849.28;680750;29;45270;-64
2021/01/10 00:45:45;;;;;;;18.08;10.57;;;;;;;3.19;74.18;101843.94;676295;29;137908;-65
2021/01/10 00:46:07;;;;;;;16.52;10.43;;;;;;;3.19;74.17;101847.47;679572;29;47271;-65
2021/01/10 00:46:28;;;;;;;17.77;10.73;;;;;;;3.19;74.27;101841.28;680978;28;23426;-65
2021/01/10 00:46:50;;;;;;;18.58;10.82;;;;;;;3.19;74.26;101839.47;682348;28;22421;-65
2021/01/10 00:47:13;;;;;;;18.15;10.27;;;;;;;3.19;74.12;101844.78;680481;28;69343;-65
2021/01/10 00:47:37;;;;;;;19.35;10.95;;;;;;;3.19;74.02;101847.47;682297;28;44967;-65
2021/01/10 00:47:59;;;;;;;20.17;11.30;;;;;;;3.19;74.21;101847.47;679493;28;116364;-64
2021/01/10 00:48:30;;;;;;;17.90;10.88;;;;;;;3.18;74.08;101845.78;675833;29;137715;-64
2021/01/10 00:48:51;;;;;;;18.92;10.98;;;;;;;3.17;74.22;101843.22;679221;29;46305;-63
2021/01/10 00:49:13;;;;;;;19.63;11.68;;;;;;;3.19;74.26;101846.63;677275;29;44385;-64
2021/01/10 00:49:35;;;;;;;19.83;10.90;;;;;;;3.19;74.16;101844.78;675426;29;44008;-64
2021/01/10 00:49:56;;;;;;;18.40;10.95;;;;;;;3.20;74.12;101840.34;675158;29;42510;-64
2021/01/10 00:50:18;;;;;;;20.48;11.23;;;;;;;3.20;74.06;101849.19;677241;29;46313;-62
2021/01/10 00:50:39;;;;;;;19.85;10.52;;;;;;;3.20;74.14;101846.53;678682;29;22387;-64
2021/01/10 00:51:03;;;;;;;17.98;10.80;;;;;;;3.21;74.14;101850.91;677497;28;92064;-64
2021/01/10 00:51:25;;;;;;;19.00;11.07;;;;;;;3.21;74.22;101848.25;679439;29;44378;-64
2021/01/10 00:51:49;;;;;;;16.67;10.20;;;;;;;3.21;74.20;101856.25;679357;29;46433;-64
2021/01/10 00:52:10;;;;;;;18.40;10.48;;;;;;;3.22;74.11;101846.41;678558;29;66122;-64
2021/01/10 00:52:36;;;;;;;18.00;9.90;;;;;;;3.21;74.14;101850.91;679001;29;42163;-64
2021/01/10 00:52:58;;;;;;;15.93;10.20;;;;;;;3.21;74.09;101852.72;675949;29;134443;-63
2021/01/10 00:53:21;;;;;;;14.88;10.18;;;;;;;3.20;74.21;101846.53;678645;29;35284;-64
2021/01/10 00:53:42;;;;;;;18.77;10.70;;;;;;;3.21;74.14;101853.59;675325;29;68365;-64
2021/01/10 00:54:04;;;;;;;17.85;10.40;;;;;;;3.20;74.13;101851.84;678807;29;21539;-64
2021/01/10 00:54:27;;;;;;;18.38;10.38;;;;;;;3.21;74.16;101842.03;679555;29;44568;-64
2021/01/10 00:54:48;;;;;;;18.60;10.65;;;;;;;3.20;74.13;101848.34;678514;29;69477;-64
2021/01/10 00:55:11;;;;;;;19.00;11.00;;;;;;;3.21;74.02;101848.25;679511;29;21530;-63
2021/01/10 00:55:32;;;;;;;20.02;11.23;;;;;;;3.20;74.18;101843.84;679601;29;44391;-62
2021/01/10 00:55:56;;;;;;;19.23;11.27;;;;;;;3.20;74.11;101849.19;679751;29;46302;-62
2021/01/10 00:56:18;;;;;;;19.85;11.43;;;;;;;3.21;74.05;101850.03;676986;29;69081;-62
2021/01/10 00:56:39;;;;;;;18.17;10.40;;;;;;;3.21;74.13;101850.03;677494;29;46401;-62
2021/01/10 00:57:01;;;;;;;18.95;10.70;;;;;;;3.21;74.16;101850.91;676615;29;44383;-62
2021/01/10 00:57:23;;;;;;;22.42;11.82;;;;;;;3.21;74.27;101850.91;675149;29;46372;-62
2021/01/10 00:57:45;;;;;;;20.13;11.07;;;;;;;3.22;74.18;101852.59;674853;29;23610;-62
2021/01/10 00:58:08;;;;;;;18.13;10.05;;;;;;;3.22;74.15;101855.28;673819;29;90318;-62
2021/01/10 00:58:29;;;;;;;18.00;10.60;;;;;;;3.21;74.20;101853.59;676879;29;46202;-62
2021/01/10 00:58:51;;;;;;;17.83;10.65;;;;;;;3.21;74.12;101850.91;676467;29;2483;-62
2021/01/10 00:59:12;;;;;;;18.40;11.18;;;;;;;3.22;74.17;101849.94;677462;29;44359;-62
2021/01/10 00:59:34;;;;;;;17.65;10.88;;;;;;;3.20;74.07;101857.19;679508;29;13538;-62
2021/01/10 00:59:57;;;;;;;18.48;10.50;;;;;;;3.22;74.24;101849.94;675508;29;111781;-62
2021/01/10 01:00:21;;;;;;;18.90;10.95;;;;;;;3.21;74.14;101850.91;679705;29;16143;-64
2021/01/10 01:00:43;;;;;;;17.48;10.38;;;;;;;3.22;73.99;101851.75;677645;29;91930;-64
2021/01/10 01:01:06;;;;;;;15.20;9.95;;;;;;;3.21;74.19;101856.25;675389;29;69404;-64
2021/01/10 01:01:27;;;;;;;17.13;11.07;;;;;;;3.20;74.18;101851.84;679048;29;21882;-64
2021/01/10 01:01:49;;;;;;;17.27;11.43;;;;;;;3.20;74.23;101851.84;679380;29;46410;-65
2021/01/10 01:02:12;;;;;;;21.88;11.30;;;;;;;3.19;74.22;101855.47;679767;29;37442;-64
2021/01/10 01:02:37;;;;;;;23.05;11.38;;;;;;;3.18;74.49;101852.91;679369;28;69488;-62
2021/01/10 01:02:58;;;;;;;20.17;11.57;;;;;;;3.20;74.26;101851.00;679385;28;82630;-63
2021/01/10 01:03:20;;;;;;;19.90;11.52;;;;;;;3.21;74.16;101852.72;680002;29;46337;-62
2021/01/10 01:03:41;;;;;;;18.42;10.90;;;;;;;3.21;74.23;101855.38;676826;29;45290;-63
2021/01/10 01:04:03;;;;;;;20.35;11.27;;;;;;;3.21;74.22;101866.94;680634;29;946;-62
2021/01/10 01:04:25;;;;;;;20.92;11.43;;;;;;;3.19;74.19;101855.47;680746;29;46354;-63
2021/01/10 01:04:47;;;;;;;20.17;11.23;;;;;;;3.16;74.25;101847.66;678038;29;45353;-63
2021/01/10 01:05:10;;;;;;;18.13;10.85;;;;;;;3.20;74.35;101856.34;676418;29;67475;-62
2021/01/10 01:05:32;;;;;;;18.85;11.63;;;;;;;3.20;74.28;101856.34;677501;29;44377;-60
2021/01/10 01:05:55;;;;;;;20.52;11.48;;;;;;;3.20;74.13;101857.19;678372;29;67548;-62
2021/01/10 01:06:17;;;;;;;19.90;11.13;;;;;;;3.19;74.13;101858.16;676554;29;46577;-62
2021/01/10 01:06:38;;;;;;;21.52;11.48;;;;;;;3.21;74.21;101855.38;678459;29;22205;-62
2021/01/10 01:07:00;;;;;;;19.85;11.18;;;;;;;3.19;74.28;101854.63;678356;29;46367;-62
2021/01/10 01:07:21;;;;;;;21.35;11.45;;;;;;;3.20;74.20;101851.00;678992;29;46267;-63
2021/01/10 01:07:45;;;;;;;18.95;10.80;;;;;;;3.20;74.29;101851.00;674876;29;69447;-63
2021/01/10 01:08:07;;;;;;;17.15;10.18;;;;;;;3.20;74.25;101857.19;675619;29;44903;-63
2021/01/10 01:08:41;;;;;;;18.75;11.15;;;;;;;3.11;74.27;101835.59;671083;29;138529;-63
2021/01/10 01:09:03;;;;;;;19.38;11.20;;;;;;;3.22;74.23;101857.09;673843;29;93181;-63
2021/01/10 01:09:24;;;;;;;20.27;11.35;;;;;;;3.21;74.29;101858.91;675002;29;46356;-63
2021/01/10 01:09:46;;;;;;;20.55;10.90;;;;;;;3.21;74.24;101858.91;678353;29;21547;-62
2021/01/10 01:10:08;;;;;;;23.95;11.30;;;;;;;3.20;74.18;101857.19;678869;29;47536;-62
2021/01/10 01:10:29;;;;;;;17.58;10.35;;;;;;;3.21;74.19;101852.72;680487;28;46261;-62
2021/01/10 01:10:51;;;;;;;20.75;11.27;;;;;;;3.21;74.13;101860.72;683172;28;22416;-62
2021/01/10 01:11:13;;;;;;;19.85;11.15;;;;;;;3.21;74.23;101858.91;683992;28;45318;-61
2021/01/10 01:11:35;;;;;;;20.17;12.00;;;;;;;3.21;74.21;101858.91;684839;28;44398;-62
2021/01/10 01:11:57;;;;;;;21.38;12.45;;;;;;;3.20;74.04;101859.03;684691;28;46477;-60
2021/01/10 01:12:18;;;;;;;17.92;10.90;;;;;;;3.21;74.22;101861.59;686253;28;44524;-64
2021/01/10 01:12:40;;;;;;;19.42;10.85;;;;;;;3.20;74.10;101857.19;686084;28;5424;-63
2021/01/10 01:13:01;;;;;;;21.67;11.65;;;;;;;3.21;74.26;101863.38;685251;28;34784;-63
2021/01/10 01:13:22;;;;;;;21.95;12.13;;;;;;;3.20;74.25;101862.53;685676;28;25019;-62
2021/01/10 01:13:43;;;;;;;20.35;11.25;;;;;;;3.21;74.24;101864.25;685642;28;21546;-64
2021/01/10 01:14:07;;;;;;;18.92;10.95;;;;;;;3.20;74.28;101862.53;685140;28;22291;-63
2021/01/10 01:14:28;;;;;;;19.05;11.75;;;;;;;3.20;74.26;101861.69;683315;28;85589;-64
2021/01/10 01:14:49;;;;;;;21.33;12.05;;;;;;;3.19;74.28;101860.81;687054;28;23500;-62
2021/01/10 01:15:12;;;;;;;21.88;12.00;;;;;;;3.19;74.43;101860.81;685817;28;16257;-62
2021/01/10 01:15:33;;;;;;;20.95;12.35;;;;;;;3.20;74.39;101862.53;684338;28;68090;-62
2021/01/10 01:15:55;;;;;;;21.33;12.45;;;;;;;3.20;74.34;101869.69;685619;28;22283;-62
2021/01/10 01:16:16;;;;;;;21.80;12.05;;;;;;;3.21;74.36;101863.38;684999;28;40416;-61
2021/01/10 01:16:39;;;;;;;22.98;12.05;;;;;;;3.19;74.20;101866.16;686044;28;11270;-62
2021/01/10 01:17:00;;;;;;;22.05;11.60;;;;;;;3.19;74.29;101863.50;683431;28;58588;-62
2021/01/10 01:17:22;;;;;;;22.05;11.73;;;;;;;3.19;74.30;101860.81;686895;28;23466;-65
2021/01/10 01:17:43;;;;;;;22.67;12.27;;;;;;;3.20;74.31;101872.38;684880;28;45129;-64
2021/01/10 01:18:05;;;;;;;21.77;12.48;;;;;;;3.19;74.31;101865.31;685332;28;23484;-62
2021/01/10 01:18:26;;;;;;;17.77;11.57;;;;;;;3.20;74.30;101864.38;684731;28;45052;-65
2021/01/10 01:18:47;;;;;;;19.52;11.25;;;;;;;3.19;74.34;101868.81;685575;28;23598;-65
2021/01/10 01:19:09;;;;;;;22.30;11.57;;;;;;;3.18;74.47;101866.25;685683;28;21536;-65
2021/01/10 01:19:30;;;;;;;22.73;11.88;;;;;;;3.20;74.43;101867.03;685143;28;47155;-65
2021/01/10 01:19:51;;;;;;;20.33;11.05;;;;;;;3.19;74.25;101865.31;685940;28;22408;-65
2021/01/10 01:20:13;;;;;;;19.90;11.23;;;;;;;3.20;74.40;101870.56;684788;28;45367;-65
2021/01/10 01:20:34;;;;;;;22.15;11.48;;;;;;;3.20;74.29;101867.88;685630;28;21569;-63
2021/01/10 01:20:56;;;;;;;20.63;11.40;;;;;;;3.20;74.25;101867.03;685802;28;21537;-65
2021/01/10 01:21:17;;;;;;;20.88;11.80;;;;;;;3.21;74.35;101874.06;683627;28;46408;-63
2021/01/10 01:21:39;;;;;;;22.07;11.73;;;;;;;3.20;74.24;101867.03;685527;28;9037;-65
2021/01/10 01:22:00;;;;;;;21.92;11.57;;;;;;;3.20;74.33;101869.69;685101;28;45398;-64
2021/01/10 01:22:22;;;;;;;21.20;12.35;;;;;;;3.19;74.18;101863.50;686020;28;23659;-63
2021/01/10 01:22:43;;;;;;;22.17;12.32;;;;;;;3.19;74.29;101868.81;684687;28;46334;-63
2021/01/10 01:23:04;;;;;;;20.90;12.00;;;;;;;3.20;74.38;101869.69;685474;28;21194;-63
2021/01/10 01:23:25;;;;;;;20.48;11.95;;;;;;;3.20;74.34;101867.03;685770;28;23514;-63
2021/01/10 01:23:49;;;;;;;19.63;11.75;;;;;;;3.19;74.16;101859.97;684712;28;45086;-63
2021/01/10 01:24:11;;;;;;;20.02;11.63;;;;;;;3.21;74.30;101871.41;684178;28;67283;-63
2021/01/10 01:24:37;;;;;;;22.25;12.45;;;;;;;3.19;74.14;101863.50;683428;28;44527;-62
2021/01/10 01:24:58;;;;;;;20.30;11.82;;;;;;;3.20;74.34;101867.88;681141;28;136275;-63
2021/01/10 01:25:20;;;;;;;21.17;11.93;;;;;;;3.20;74.25;101867.88;685796;28;22816;-63
2021/01/10 01:25:41;;;;;;;22.38;11.77;;;;;;;3.21;74.27;101876.72;684729;28;45281;-63
2021/01/10 01:26:02;;;;;;;22.08;11.88;;;;;;;3.20;74.12;101867.03;685612;28;23511;-63
2021/01/10 01:26:24;;;;;;;20.88;11.40;;;;;;;3.20;74.23;101869.69;684675;28;46324;-63
2021/01/10 01:26:46;;;;;;;20.60;11.35;;;;;;;3.20;74.33;101875.03;684809;28;46359;-62
2021/01/10 01:27:07;;;;;;;20.48;11.77;;;;;;;3.19;74.31;101876.84;686085;28;22419;-63
2021/01/10 01:27:32;;;;;;;20.02;12.07;;;;;;;3.19;74.54;101865.31;684828;28;46430;-62
2021/01/10 01:27:53;;;;;;;22.10;11.73;;;;;;;3.20;74.39;101869.69;683413;28;92322;-61
2021/01/10 01:28:15;;;;;;;22.83;12.35;;;;;;;3.19;74.36;101866.16;685418;28;21542;-62
2021/01/10 01:28:36;;;;;;;20.98;11.52;;;;;;;3.17;74.31;101870.75;684527;28;46344;-62
2021/01/10 01:28:58;;;;;;;21.27;12.27;;;;;;;3.20;74.34;101870.56;685538;28;21611;-60
2021/01/10 01:29:19;;;;;;;21.98;12.15;;;;;;;3.19;74.33;101871.50;683958;28;46495;-61
2021/01/10 01:29:40;;;;;;;23.60;12.20;;;;;;;3.20;74.25;101865.22;686292;28;22383;-61
2021/01/10 01:30:03;;;;;;;22.67;12.05;;;;;;;3.20;74.39;101872.38;684818;28;44314;-62
2021/01/10 01:30:24;;;;;;;22.85;12.35;;;;;;;3.20;74.13;101872.38;683951;28;69472;-62
2021/01/10 01:30:46;;;;;;;21.05;11.80;;;;;;;3.21;74.13;101874.06;685147;28;31083;-62
2021/01/10 01:31:07;;;;;;;21.35;11.75;;;;;;;3.16;74.32;101869.03;685758;28;21544;-62
2021/01/10 01:31:30;;;;;;;18.70;11.05;;;;;;;3.20;74.29;101875.88;685588;28;22396;-62
2021/01/10 01:31:51;;;;;;;24.70;11.77;;;;;;;3.20;74.30;101869.69;683936;28;69476;-61
2021/01/10 01:32:12;;;;;;;24.17;12.10;;;;;;;3.19;74.28;101876.00;686188;28;46367;-65
2021/01/10 01:32:34;;;;;;;20.98;12.15;;;;;;;3.19;74.25;101876.00;685428;28;22404;-64
2021/01/10 01:32:56;;;;;;;21.45;11.82;;;;;;;3.20;74.28;101875.03;684722;28;44412;-65
2021/01/10 01:33:23;;;;;;;23.27;12.18;;;;;;;3.19;74.27;101873.31;684396;28;60764;-65
2021/01/10 01:33:46;;;;;;;23.60;12.43;;;;;;;3.19;74.13;101866.16;685068;28;28915;-64
2021/01/10 01:34:07;;;;;;;22.83;12.32;;;;;;;3.19;74.35;101866.16;683368;28;93150;-63
2021/01/10 01:34:29;;;;;;;20.15;11.65;;;;;;;3.19;74.26;101876.84;685596;28;23535;-64
2021/01/10 01:34:50;;;;;;;22.20;12.18;;;;;;;3.19;74.28;101863.50;686816;28;23635;-62
2021/01/10 01:35:12;;;;;;;22.58;11.85;;;;;;;3.20;74.32;101875.03;684674;28;43785;-63
2021/01/10 01:35:33;;;;;;;23.33;11.88;;;;;;;3.19;74.31;101868.81;685690;28;16597;-63
2021/01/10 01:35:54;;;;;;;23.90;11.77;;;;;;;3.19;74.35;101865.31;686339;28;950;-62
2021/01/10 01:36:18;;;;;;;23.17;11.60;;;;;;;3.18;74.24;101868.94;686108;28;23546;-63
2021/01/10 01:36:39;;;;;;;21.60;11.98;;;;;;;3.20;74.40;101872.38;683886;28;69398;-63
2021/01/10 01:37:00;;;;;;;19.80;11.27;;;;;;;3.20;74.38;101872.38;685490;28;22376;-63
2021/01/10 01:37:22;;;;;;;22.02;11.35;;;;;;;3.20;74.33;101872.38;683493;28;45971;-62
2021/01/10 01:37:43;;;;;;;24.80;12.02;;;;;;;3.20;74.32;101869.69;683275;28;8213;-62
2021/01/10 01:38:05;;;;;;;23.52;12.10;;;;;;;3.19;74.26;101868.81;682037;28;46404;-62
2021/01/10 01:38:28;;;;;;;23.60;12.20;;;;;;;3.20;74.26;101875.03;683490;28;867;-63
2021/01/10 01:38:54;;;;;;;23.73;12.20;;;;;;;3.19;74.28;101870.66;682216;28;38782;-63
2021/01/10 01:39:16;;;;;;;22.95;12.15;;;;;;;3.18;74.49;101875.16;683009;28;69443;-64
2021/01/10 01:39:37;;;;;;;23.27;12.45;;;;;;;3.19;74.29;101874.16;687049;28;21563;-63
2021/01/10 01:39:58;;;;;;;22.92;12.45;;;;;;;3.20;74.28;101878.56;684437;28;46322;-61
2021/01/10 01:40:20;;;;;;;21.77;12.13;;;;;;;3.19;74.36;101879.50;685689;28;22301;-62
2021/01/10 01:40:41;;;;;;;22.90;11.90;;;;;;;3.18;74.26;101875.16;685548;28;23387;-62
2021/01/10 01:41:02;;;;;;;21.48;11.50;;;;;;;3.19;74.32;101874.16;684602;28;46368;-62
2021/01/10 01:41:24;;;;;;;22.98;12.02;;;;;;;3.16;74.23;101873.53;685560;28;23315;-61
2021/01/10 01:41:47;;;;;;;21.52;11.45;;;;;;;3.18;74.29;101867.13;686350;28;899;-62
2021/01/10 01:42:13;;;;;;;21.77;11.65;;;;;;;3.18;74.36;101877.81;686269;28;21550;-63
2021/01/10 01:42:34;;;;;;;20.73;11.63;;;;;;;3.16;74.41;101866.34;681625;28;138184;-63
2021/01/10 01:42:55;;;;;;;20.88;11.25;;;;;;;3.17;74.37;101867.22;684689;28;46269;-63